Time;durP1;ratioP1;P1;durP2;ratioP2;P2;SDS_P1;SDS_P2;PMS_P1;PMS_P2;Temp;Humidity;BMP_temperature;BMP_pressure;BME280_temperature;BME280_humidity;BME280_pressure;Samples;Min_cycle;Max_cycle;Signal;HPM_P1;HPM_P2
2024/03/06 00:02:20;;;;;;;26.27;18.40;;;9.10;99.90;;;;;;5020731;28;20022;-74
2024/03/06 00:04:46;;;;;;;25.45;18.00;;;9.10;99.90;;;;;;4997647;28;20040;-77
2024/03/06 00:07:12;;;;;;;28.58;18.70;;;9.10;99.90;;;;;;4982455;28;20026;-74
2024/03/06 00:09:39;;;;;;;28.67;20.48;;;9.10;99.90;;;;;;5020696;28;20052;-79
2024/03/06 00:12:06;;;;;;;30.35;19.17;;;9.10;99.90;;;;;;5018681;28;20521;-76
2024/03/06 00:14:32;;;;;;;28.45;18.73;;;9.10;99.90;;;;;;5004624;28;20040;-75
2024/03/06 00:16:59;;;;;;;24.73;17.27;;;9.10;99.90;;;;;;5003662;28;20669;-74
2024/03/06 00:19:25;;;;;;;22.30;14.35;;;9.10;99.90;;;;;;5003419;28;20111;-76
2024/03/06 00:21:52;;;;;;;26.90;17.75;;;9.10;99.90;;;;;;5022271;28;20493;-75
2024/03/06 00:24:22;;;;;;;29.50;17.98;;;9.10;99.90;;;;;;5024904;28;20124;-75
2024/03/06 00:26:50;;;;;;;23.08;15.88;;;9.10;99.90;;;;;;5020140;28;20033;-76
2024/03/06 00:29:17;;;;;;;23.33;14.95;;;9.10;99.90;;;;;;5005201;28;20471;-75
2024/03/06 00:31:44;;;;;;;21.10;14.70;;;9.10;99.90;;;;;;5021799;28;20499;-75
2024/03/06 00:34:13;;;;;;;20.02;13.65;;;9.10;99.90;;;;;;5003818;28;20466;-76
2024/03/06 00:36:41;;;;;;;20.40;15.32;;;9.00;99.90;;;;;;4988693;28;20033;-77
2024/03/06 00:39:07;;;;;;;22.33;16.52;;;9.00;99.90;;;;;;5006912;28;20029;-77
2024/03/06 00:41:37;;;;;;;23.92;16.70;;;9.00;99.90;;;;;;5005369;28;20508;-74
2024/03/06 00:44:05;;;;;;;23.60;16.13;;;9.00;99.90;;;;;;5008451;28;20385;-75
2024/03/06 00:46:32;;;;;;;22.75;16.67;;;8.90;99.90;;;;;;5024387;28;20071;-77
2024/03/06 00:48:58;;;;;;;24.40;17.45;;;8.90;99.90;;;;;;5001714;28;20682;-75
2024/03/06 00:51:24;;;;;;;22.17;16.63;;;8.90;99.90;;;;;;5021929;28;20022;-76
2024/03/06 00:53:50;;;;;;;26.05;18.70;;;8.80;99.90;;;;;;5005435;28;20034;-75
2024/03/06 00:56:17;;;;;;;23.40;16.65;;;8.70;99.90;;;;;;5021636;28;20017;-76
2024/03/06 00:58:44;;;;;;;23.80;16.45;;;8.80;99.90;;;;;;5021899;28;20029;-76
2024/03/06 01:01:12;;;;;;;23.10;16.60;;;8.70;99.90;;;;;;5025233;28;20400;-74
2024/03/06 01:03:39;;;;;;;26.00;17.00;;;8.70;99.90;;;;;;5004625;28;20060;-77
2024/03/06 01:06:05;;;;;;;25.63;17.55;;;8.60;99.90;;;;;;5003580;28;20026;-76
2024/03/06 01:08:32;;;;;;;27.95;19.35;;;8.60;99.90;;;;;;5017230;28;20490;-77
2024/03/06 01:10:57;;;;;;;27.58;19.95;;;8.60;99.90;;;;;;5020609;28;20096;-76
2024/03/06 01:13:26;;;;;;;28.95;19.55;;;8.60;99.90;;;;;;5000604;28;20022;-77
2024/03/06 01:15:55;;;;;;;32.10;19.27;;;8.60;99.90;;;;;;5020661;28;20555;-76
2024/03/06 01:18:21;;;;;;;24.98;17.73;;;8.50;99.90;;;;;;5016437;28;20487;-76
2024/03/06 01:20:50;;;;;;;27.25;17.95;;;8.50;99.90;;;;;;5022964;28;20402;-76
2024/03/06 01:23:17;;;;;;;23.00;17.35;;;8.50;99.90;;;;;;5019780;28;20100;-76
2024/03/06 01:25:46;;;;;;;24.90;17.75;;;8.40;99.90;;;;;;5003658;28;20167;-75
2024/03/06 01:28:15;;;;;;;29.83;18.65;;;8.40;99.90;;;;;;5013103;28;20025;-77
2024/03/06 01:30:42;;;;;;;27.70;20.23;;;8.40;99.90;;;;;;5002915;28;20037;-75
2024/03/06 01:33:09;;;;;;;28.08;18.77;;;8.30;99.90;;;;;;5020215;28;20132;-76
2024/03/06 01:35:35;;;;;;;21.70;16.15;;;8.30;99.90;;;;;;5003582;28;20090;-74
2024/03/06 01:38:03;;;;;;;27.20;18.65;;;8.30;99.90;;;;;;5021055;28;20030;-74
2024/03/06 01:40:31;;;;;;;23.73;16.60;;;8.30;99.90;;;;;;4999045;28;21424;-78
2024/03/06 01:43:01;;;;;;;21.52;16.20;;;8.30;99.90;;;;;;5002533;28;20129;-78
2024/03/06 01:45:27;;;;;;;21.58;15.13;;;8.30;99.90;;;;;;5015137;28;20436;-80
2024/03/06 01:47:53;;;;;;;21.92;15.23;;;8.30;99.90;;;;;;5016036;28;20053;-78
2024/03/06 01:50:19;;;;;;;24.48;15.10;;;8.20;99.90;;;;;;4995886;28;20037;-76
2024/03/06 01:52:50;;;;;;;20.10;15.52;;;8.20;99.90;;;;;;5019989;28;20486;-77
2024/03/06 01:55:18;;;;;;;21.25;14.32;;;8.20;99.90;;;;;;4989608;28;20026;-79
2024/03/06 01:57:45;;;;;;;25.15;16.48;;;8.20;99.90;;;;;;5001668;28;20034;-76
2024/03/06 02:00:13;;;;;;;22.52;15.88;;;8.10;99.90;;;;;;4983003;28;20048;-75
2024/03/06 02:02:41;;;;;;;22.00;16.13;;;8.10;99.90;;;;;;5000025;28;20029;-77
2024/03/06 02:05:09;;;;;;;27.17;15.23;;;8.10;99.90;;;;;;5021286;28;20022;-77
2024/03/06 02:07:38;;;;;;;22.00;14.90;;;8.10;99.90;;;;;;5016865;28;20048;-76
2024/03/06 02:10:06;;;;;;;19.30;13.95;;;8.00;99.90;;;;;;5018542;28;20072;-78
2024/03/06 02:12:34;;;;;;;21.92;15.18;;;8.00;99.90;;;;;;5003237;28;20115;-78
2024/03/06 02:15:00;;;;;;;22.08;14.63;;;8.00;99.90;;;;;;5018199;28;20036;-76
2024/03/06 02:17:29;;;;;;;20.83;14.27;;;7.90;99.90;;;;;;4984330;28;20045;-76
2024/03/06 02:19:58;;;;;;;21.02;14.73;;;7.90;99.90;;;;;;5017530;28;20065;-75
2024/03/06 02:22:24;;;;;;;18.00;13.50;;;7.90;99.90;;;;;;4996965;28;20056;-76
2024/03/06 02:24:53;;;;;;;22.67;14.07;;;7.90;99.90;;;;;;5001439;28;20156;-76
2024/03/06 02:27:20;;;;;;;18.50;12.52;;;7.90;99.90;;;;;;5019101;28;20101;-76
2024/03/06 02:29:46;;;;;;;22.05;13.80;;;7.80;99.90;;;;;;4986557;28;20030;-77
2024/03/06 02:32:18;;;;;;;20.60;14.93;;;7.80;99.90;;;;;;5004240;28;20029;-76
2024/03/06 02:34:44;;;;;;;19.30;14.32;;;7.80;99.90;;;;;;5003114;28;20029;-75
2024/03/06 02:37:11;;;;;;;19.42;13.70;;;7.80;99.90;;;;;;5020197;28;20020;-75
2024/03/06 02:39:38;;;;;;;22.45;15.23;;;7.70;99.90;;;;;;5001357;28;20046;-75
2024/03/06 02:42:06;;;;;;;21.38;15.73;;;7.70;99.90;;;;;;5021531;28;20040;-76
2024/03/06 02:44:36;;;;;;;19.90;14.18;;;7.70;99.90;;;;;;5006450;28;20112;-75
2024/03/06 02:47:03;;;;;;;21.25;14.77;;;7.60;99.90;;;;;;5005404;28;20108;-75
2024/03/06 02:49:29;;;;;;;21.15;13.75;;;7.60;99.90;;;;;;5019977;28;20029;-75
2024/03/06 02:51:55;;;;;;;19.55;13.63;;;7.60;99.90;;;;;;5002908;28;20033;-75
2024/03/06 02:54:24;;;;;;;20.98;14.35;;;7.60;99.90;;;;;;5021011;28;20022;-77
2024/03/06 02:56:52;;;;;;;18.75;14.90;;;7.50;99.90;;;;;;5016803;28;20495;-75
2024/03/06 02:59:21;;;;;;;24.20;14.55;;;7.50;99.90;;;;;;5022651;28;20037;-75
2024/03/06 03:01:49;;;;;;;24.58;15.40;;;7.50;99.90;;;;;;5002581;28;20056;-75
2024/03/06 03:04:17;;;;;;;21.45;13.95;;;7.50;99.90;;;;;;5018651;28;20037;-77
2024/03/06 03:06:44;;;;;;;22.98;14.43;;;7.50;99.90;;;;;;5024804;28;20505;-75
2024/03/06 03:09:11;;;;;;;22.75;14.68;;;7.50;99.90;;;;;;5005748;28;20029;-76
2024/03/06 03:11:38;;;;;;;18.55;12.82;;;7.50;99.90;;;;;;4996712;28;20041;-76
2024/03/06 03:14:04;;;;;;;17.08;12.80;;;7.50;99.90;;;;;;5022123;28;20064;-76
2024/03/06 03:16:32;;;;;;;19.67;13.48;;;7.40;99.90;;;;;;5024832;28;20433;-75
2024/03/06 03:18:59;;;;;;;17.77;13.15;;;7.40;99.90;;;;;;5020694;28;20044;-76
2024/03/06 03:21:28;;;;;;;21.95;13.63;;;7.40;99.90;;;;;;4989372;28;20120;-75
2024/03/06 03:23:55;;;;;;;19.17;14.40;;;7.30;99.90;;;;;;5018693;28;20088;-76
2024/03/06 03:26:21;;;;;;;15.57;13.15;;;7.30;99.90;;;;;;5021862;28;20454;-76
2024/03/06 03:28:47;;;;;;;17.70;12.45;;;7.30;99.90;;;;;;5016620;28;20026;-75
2024/03/06 03:31:13;;;;;;;14.85;11.82;;;7.30;99.90;;;;;;5003483;28;20038;-76
2024/03/06 03:33:40;;;;;;;15.32;12.48;;;7.30;99.90;;;;;;5022772;28;20470;-74
2024/03/06 03:36:07;;;;;;;20.75;15.55;;;7.20;99.90;;;;;;5004961;28;20037;-78
2024/03/06 03:38:38;;;;;;;19.83;13.68;;;7.20;99.90;;;;;;5003659;28;20489;-76
2024/03/06 03:41:17;;;;;;;22.98;14.23;;;7.20;99.90;;;;;;5018812;28;20080;-75
2024/03/06 03:43:45;;;;;;;17.52;13.05;;;7.20;99.90;;;;;;5019730;28;20496;-75
2024/03/06 03:46:13;;;;;;;19.90;13.73;;;7.10;99.90;;;;;;5019419;28;20389;-75
2024/03/06 03:48:44;;;;;;;19.98;14.02;;;7.10;99.90;;;;;;5004882;28;20030;-75
2024/03/06 03:51:10;;;;;;;23.42;14.68;;;7.10;99.90;;;;;;5021442;28;20053;-76
2024/03/06 03:53:36;;;;;;;20.15;15.13;;;7.10;99.90;;;;;;5008457;28;20018;-77
2024/03/06 03:56:03;;;;;;;20.48;14.63;;;7.00;99.90;;;;;;5025008;28;20036;-78
2024/03/06 03:58:30;;;;;;;19.42;14.25;;;7.00;99.90;;;;;;5021480;28;20045;-76
2024/03/06 04:00:57;;;;;;;20.70;15.07;;;7.00;99.90;;;;;;5002894;28;20120;-78
2024/03/06 04:03:25;;;;;;;21.08;14.07;;;7.00;99.90;;;;;;5020733;28;20022;-76
2024/03/06 04:05:51;;;;;;;19.17;13.52;;;6.90;99.90;;;;;;5003349;28;20120;-76
2024/03/06 04:08:18;;;;;;;20.23;13.10;;;6.90;99.90;;;;;;5019623;28;20026;-75
2024/03/06 04:10:48;;;;;;;17.55;13.27;;;6.80;99.90;;;;;;5020821;28;20037;-76
2024/03/06 04:13:16;;;;;;;20.98;13.63;;;6.80;99.90;;;;;;5020194;28;20104;-78
2024/03/06 04:15:45;;;;;;;16.75;13.43;;;6.80;99.90;;;;;;5022129;28;20103;-77
2024/03/06 04:18:12;;;;;;;15.68;12.40;;;6.80;99.90;;;;;;5002774;28;20060;-76
2024/03/06 04:20:39;;;;;;;18.65;13.43;;;6.80;99.90;;;;;;5024520;28;20033;-75
2024/03/06 04:23:07;;;;;;;21.50;13.23;;;6.70;99.90;;;;;;5025068;28;20458;-77
2024/03/06 04:25:34;;;;;;;15.48;11.77;;;6.70;99.90;;;;;;5006554;28;20116;-75
2024/03/06 04:28:02;;;;;;;17.38;12.60;;;6.70;99.90;;;;;;5022829;28;20052;-75
2024/03/06 04:30:31;;;;;;;14.63;12.85;;;6.70;99.90;;;;;;4989119;28;20578;-75
2024/03/06 04:32:57;;;;;;;19.30;12.98;;;6.70;99.90;;;;;;5003118;28;20041;-75
2024/03/06 04:35:23;;;;;;;18.08;12.52;;;6.60;99.90;;;;;;5021901;28;20025;-75
2024/03/06 04:37:52;;;;;;;20.48;13.13;;;6.60;99.90;;;;;;5004192;28;20402;-76
2024/03/06 04:40:20;;;;;;;22.67;13.15;;;6.50;99.90;;;;;;5023469;28;20037;-76
2024/03/06 04:42:51;;;;;;;19.67;13.15;;;6.60;99.90;;;;;;5018847;28;20557;-75
2024/03/06 04:45:18;;;;;;;19.85;13.88;;;6.50;99.90;;;;;;5026045;28;20479;-77
2024/03/06 04:47:45;;;;;;;21.88;13.90;;;6.50;99.90;;;;;;5006715;28;20095;-75
2024/03/06 04:50:14;;;;;;;18.40;13.32;;;6.40;99.90;;;;;;5021357;28;20033;-76
2024/03/06 04:52:40;;;;;;;20.33;13.48;;;6.40;99.90;;;;;;5022478;28;20104;-75
2024/03/06 04:55:09;;;;;;;17.55;13.10;;;6.40;99.90;;;;;;5021134;28;20037;-75
2024/03/06 04:57:44;;;;;;;13.82;8.55;;;6.40;99.90;;;;;;5006494;28;20041;-75
2024/03/06 05:00:11;;;;;;;16.55;13.02;;;6.40;99.90;;;;;;5008449;28;20517;-75
2024/03/06 05:02:42;;;;;;;19.45;13.98;;;6.40;99.90;;;;;;5021804;28;20049;-76
2024/03/06 05:05:08;;;;;;;16.65;12.48;;;6.40;99.90;;;;;;5009475;28;20021;-76
2024/03/06 05:07:34;;;;;;;17.10;12.90;;;6.30;99.90;;;;;;5028606;28;20029;-75
2024/03/06 05:10:01;;;;;;;14.90;11.63;;;6.30;99.90;;;;;;5023894;28;20494;-74
2024/03/06 05:12:30;;;;;;;17.33;12.10;;;6.30;99.90;;;;;;5026270;28;20017;-74
2024/03/06 05:14:59;;;;;;;15.52;11.82;;;6.30;99.90;;;;;;5023315;28;20033;-74
2024/03/06 05:17:24;;;;;;;21.10;12.77;;;6.30;99.90;;;;;;5020519;28;20024;-75
2024/03/06 05:19:52;;;;;;;14.85;11.05;;;6.30;99.90;;;;;;5022016;28;20037;-75
2024/03/06 05:22:19;;;;;;;13.35;11.00;;;6.20;99.90;;;;;;5019602;28;20057;-74
2024/03/06 05:24:46;;;;;;;16.90;12.05;;;6.20;99.90;;;;;;5001608;28;20018;-75
2024/03/06 05:27:16;;;;;;;17.67;13.00;;;6.20;99.90;;;;;;5017342;28;20036;-74
2024/03/06 05:29:43;;;;;;;16.48;11.95;;;6.20;99.90;;;;;;5018105;28;20172;-74
2024/03/06 05:32:11;;;;;;;16.95;12.90;;;6.10;99.90;;;;;;5022323;28;20496;-74
2024/03/06 05:34:36;;;;;;;18.40;13.18;;;6.10;99.90;;;;;;5018846;28;20022;-74
2024/03/06 05:37:05;;;;;;;16.75;11.55;;;6.10;99.90;;;;;;4998520;28;20045;-74
2024/03/06 05:39:32;;;;;;;16.20;11.65;;;5.90;99.90;;;;;;5021849;28;20389;-80
2024/03/06 05:42:03;;;;;;;14.88;11.73;;;5.90;99.90;;;;;;5019208;28;20036;-76
2024/03/06 05:44:32;;;;;;;20.10;13.60;;;5.90;99.90;;;;;;5000190;28;20033;-76
2024/03/06 05:46:59;;;;;;;18.60;13.30;;;6.00;99.90;;;;;;5018325;28;20085;-75
2024/03/06 05:49:32;;;;;;;16.23;12.07;;;6.00;99.90;;;;;;5001610;28;20033;-75
2024/03/06 05:51:58;;;;;;;15.73;11.07;;;6.00;99.90;;;;;;5016132;28;20477;-75
2024/03/06 05:54:24;;;;;;;15.38;11.55;;;6.00;99.90;;;;;;5017317;28;20102;-81
2024/03/06 05:56:51;;;;;;;14.07;10.88;;;5.90;99.90;;;;;;5000589;28;20489;-76
2024/03/06 05:59:18;;;;;;;14.23;11.02;;;5.90;99.90;;;;;;5021533;28;20082;-76
2024/03/06 06:01:44;;;;;;;15.25;11.40;;;5.90;99.90;;;;;;5021333;28;20091;-80
2024/03/06 06:04:13;;;;;;;17.92;11.85;;;5.90;99.90;;;;;;5015894;28;20161;-79
2024/03/06 06:06:39;;;;;;;15.82;10.18;;;5.90;99.90;;;;;;5017262;28;20046;-77
2024/03/06 06:09:05;;;;;;;17.17;12.25;;;5.90;99.90;;;;;;5012007;28;20482;-75
2024/03/06 06:11:31;;;;;;;15.98;12.27;;;5.90;99.90;;;;;;5020844;28;20025;-79
2024/03/06 06:13:57;;;;;;;17.77;13.05;;;5.90;99.90;;;;;;5017719;28;20819;-75
2024/03/06 06:16:23;;;;;;;20.80;13.20;;;5.90;99.90;;;;;;5017807;28;20533;-77
2024/03/06 06:18:48;;;;;;;17.08;12.63;;;5.90;99.90;;;;;;5015801;28;20377;-79
2024/03/06 06:21:16;;;;;;;17.83;11.82;;;5.90;99.90;;;;;;5017382;28;20386;-76
2024/03/06 06:23:42;;;;;;;16.73;11.23;;;5.90;99.90;;;;;;5019215;28;20721;-75
2024/03/06 06:26:10;;;;;;;17.70;12.93;;;5.80;99.90;;;;;;5017184;28;20091;-75
2024/03/06 06:28:36;;;;;;;15.75;11.80;;;5.80;99.90;;;;;;5017585;28;20025;-76
2024/03/06 06:31:04;;;;;;;19.42;12.40;;;5.80;99.90;;;;;;5017723;28;20040;-76
2024/03/06 06:33:30;;;;;;;16.85;11.88;;;5.80;99.90;;;;;;5022737;28;20078;-76
2024/03/06 06:35:55;;;;;;;17.25;10.88;;;5.80;99.90;;;;;;5019700;28;20081;-77
2024/03/06 06:38:21;;;;;;;15.02;11.25;;;5.80;99.90;;;;;;5020726;28;20434;-76
2024/03/06 06:40:47;;;;;;;18.27;11.98;;;5.90;99.90;;;;;;5020421;28;20056;-75
2024/03/06 06:43:13;;;;;;;17.42;11.75;;;5.90;99.90;;;;;;5018295;28;20374;-77
2024/03/06 06:45:40;;;;;;;17.45;11.75;;;5.90;99.90;;;;;;5000711;28;20378;-79
2024/03/06 06:48:06;;;;;;;15.38;11.82;;;5.90;99.90;;;;;;5014749;28;20026;-77
2024/03/06 06:50:33;;;;;;;17.42;11.55;;;5.90;99.90;;;;;;5020495;28;20049;-76
2024/03/06 06:53:00;;;;;;;15.45;10.38;;;5.90;99.90;;;;;;5018287;28;20034;-75
2024/03/06 06:55:26;;;;;;;17.65;11.68;;;5.90;99.90;;;;;;5016622;28;20021;-80
2024/03/06 06:57:52;;;;;;;17.98;12.55;;;5.90;99.90;;;;;;5014999;28;20372;-75
2024/03/06 07:00:18;;;;;;;16.55;11.90;;;5.90;99.90;;;;;;5014447;28;20045;-76
2024/03/06 07:02:44;;;;;;;18.23;11.70;;;5.90;99.90;;;;;;5016284;28;20030;-75
2024/03/06 07:05:11;;;;;;;18.35;12.07;;;5.90;99.90;;;;;;4999906;28;20149;-74
2024/03/06 07:07:37;;;;;;;19.98;13.05;;;6.00;99.90;;;;;;5017423;28;20459;-81
2024/03/06 07:10:04;;;;;;;26.70;12.40;;;6.00;99.90;;;;;;5018080;28;20148;-75
2024/03/06 07:12:30;;;;;;;22.15;13.52;;;6.00;99.90;;;;;;5014545;28;20046;-74
2024/03/06 07:14:57;;;;;;;21.25;14.25;;;6.00;99.90;;;;;;5015868;28;20048;-75
2024/03/06 07:17:23;;;;;;;22.17;14.50;;;6.00;99.90;;;;;;5009215;28;20589;-75
2024/03/06 07:19:49;;;;;;;19.25;13.32;;;6.00;99.90;;;;;;5020316;28;20060;-76
2024/03/06 07:22:14;;;;;;;19.95;12.25;;;6.10;99.90;;;;;;5022503;28;20413;-74
2024/03/06 07:24:41;;;;;;;23.35;16.13;;;6.10;99.90;;;;;;5018216;28;20083;-77
2024/03/06 07:27:08;;;;;;;27.90;18.35;;;6.10;99.90;;;;;;5023446;28;20024;-74
2024/03/06 07:29:35;;;;;;;22.88;15.20;;;6.10;99.90;;;;;;5025127;28;20029;-75
2024/03/06 07:32:01;;;;;;;17.98;13.85;;;6.10;99.90;;;;;;5021692;28;20034;-75
2024/03/06 07:34:27;;;;;;;19.48;13.68;;;6.00;99.90;;;;;;5020676;28;20069;-74
2024/03/06 07:36:53;;;;;;;22.35;13.77;;;6.10;99.90;;;;;;5020197;28;20045;-77
2024/03/06 07:39:22;;;;;;;21.00;13.32;;;6.10;99.90;;;;;;5003488;28;20026;-80
2024/03/06 07:41:47;;;;;;;19.50;11.45;;;6.20;99.90;;;;;;5023942;28;20485;-74
2024/03/06 07:44:13;;;;;;;16.67;11.18;;;6.20;99.90;;;;;;5018487;28;20030;-74
2024/03/06 07:46:39;;;;;;;18.42;12.98;;;6.10;99.90;;;;;;5021698;28;20785;-74
2024/03/06 07:49:05;;;;;;;21.88;13.77;;;6.30;99.90;;;;;;5024355;28;20157;-73
2024/03/06 07:51:34;;;;;;;24.92;15.20;;;6.30;99.90;;;;;;5024434;28;20092;-73
2024/03/06 07:54:00;;;;;;;17.15;12.80;;;6.30;99.90;;;;;;5007013;28;20057;-73
2024/03/06 07:56:26;;;;;;;14.00;11.60;;;6.40;99.90;;;;;;5022731;28;20057;-74
2024/03/06 07:58:53;;;;;;;19.77;12.73;;;6.50;99.90;;;;;;5025215;28;20060;-73
2024/03/06 08:01:20;;;;;;;21.63;13.88;;;6.50;99.90;;;;;;5005806;28;20018;-74
2024/03/06 08:03:46;;;;;;;18.52;14.15;;;6.60;99.90;;;;;;5022327;28;20033;-75
2024/03/06 08:06:15;;;;;;;22.48;14.10;;;6.70;99.90;;;;;;5021154;28;20446;-75
2024/03/06 08:08:44;;;;;;;23.45;16.67;;;6.80;99.90;;;;;;5024053;28;20026;-74
2024/03/06 08:11:11;;;;;;;22.05;15.10;;;6.90;99.90;;;;;;5021948;28;20025;-73
2024/03/06 08:13:37;;;;;;;20.02;15.02;;;7.10;99.90;;;;;;5004980;28;20025;-75
2024/03/06 08:16:07;;;;;;;24.80;14.93;;;7.20;99.90;;;;;;5004945;28;20017;-73
2024/03/06 08:18:34;;;;;;;24.63;16.85;;;7.40;99.90;;;;;;5019284;28;20037;-75
2024/03/06 08:21:01;;;;;;;21.95;15.60;;;7.50;99.90;;;;;;5024656;28;20046;-75
2024/03/06 08:23:27;;;;;;;25.02;15.27;;;7.60;99.90;;;;;;5022750;28;20014;-74
2024/03/06 08:25:52;;;;;;;20.45;14.38;;;7.60;99.90;;;;;;5024383;28;20045;-74
2024/03/06 08:28:18;;;;;;;21.17;15.15;;;7.70;99.90;;;;;;5023664;28;20462;-74
2024/03/06 08:30:44;;;;;;;22.80;15.38;;;7.80;99.90;;;;;;5019849;28;20033;-73
2024/03/06 08:33:10;;;;;;;21.50;13.93;;;7.90;99.90;;;;;;5024320;28;20386;-74
2024/03/06 08:35:36;;;;;;;21.17;14.05;;;8.00;99.90;;;;;;5020043;28;20044;-73
2024/03/06 08:38:02;;;;;;;17.05;12.70;;;8.10;99.90;;;;;;5021190;28;20426;-74
2024/03/06 08:40:28;;;;;;;22.67;13.20;;;8.20;99.90;;;;;;5020236;28;20044;-75
2024/03/06 08:42:54;;;;;;;15.95;11.88;;;8.30;99.90;;;;;;5019299;28;20462;-73
2024/03/06 08:45:20;;;;;;;22.70;14.27;;;8.50;99.90;;;;;;5022371;28;20025;-76
2024/03/06 08:47:50;;;;;;;20.20;13.13;;;8.60;99.90;;;;;;5020629;28;20033;-75
2024/03/06 08:50:16;;;;;;;19.83;12.60;;;8.70;99.90;;;;;;5024085;28;20029;-74
2024/03/06 08:52:42;;;;;;;17.45;11.38;;;8.80;99.90;;;;;;5001973;28;20501;-80
2024/03/06 08:55:08;;;;;;;16.90;12.23;;;8.70;99.90;;;;;;5021811;28;20087;-73
2024/03/06 08:57:35;;;;;;;16.40;11.18;;;8.90;99.90;;;;;;5022557;28;20033;-75
2024/03/06 09:00:02;;;;;;;15.55;10.98;;;9.00;99.90;;;;;;5004744;28;20116;-75
2024/03/06 09:02:28;;;;;;;14.25;10.65;;;9.10;99.90;;;;;;5021262;28;20028;-74
2024/03/06 09:04:54;;;;;;;20.58;10.05;;;9.40;99.90;;;;;;5023476;28;20018;-75
2024/03/06 09:07:23;;;;;;;19.15;11.05;;;9.60;99.90;;;;;;5024983;28;20024;-75
2024/03/06 09:09:50;;;;;;;16.75;10.52;;;9.80;99.90;;;;;;5018580;28;20022;-77
2024/03/06 09:12:15;;;;;;;21.95;11.95;;;9.80;99.90;;;;;;5019831;28;20068;-75
2024/03/06 09:14:41;;;;;;;14.23;10.07;;;9.80;99.90;;;;;;5020851;28;20421;-76
2024/03/06 09:17:10;;;;;;;16.52;9.27;;;10.00;99.90;;;;;;5020737;28;20013;-75
2024/03/06 09:19:36;;;;;;;12.10;9.45;;;10.20;99.90;;;;;;5023765;28;20539;-75
2024/03/06 09:22:02;;;;;;;14.65;9.68;;;10.40;99.90;;;;;;5019437;28;20033;-75
2024/03/06 09:24:28;;;;;;;14.48;9.63;;;10.40;99.90;;;;;;5020830;28;20025;-75
2024/03/06 09:26:54;;;;;;;16.75;9.02;;;10.50;99.90;;;;;;5020149;28;20044;-74
2024/03/06 09:29:20;;;;;;;12.73;9.27;;;10.70;99.90;;;;;;5018463;28;20029;-74
2024/03/06 09:31:47;;;;;;;16.63;9.00;;;10.70;99.90;;;;;;5003972;28;20618;-74
2024/03/06 09:34:13;;;;;;;12.52;8.52;;;10.70;99.90;;;;;;5018327;28;20055;-76
2024/03/06 09:36:46;;;;;;;12.80;8.48;;;10.70;99.90;;;;;;5022029;28;20029;-73
2024/03/06 09:39:12;;;;;;;;;;;10.90;99.90;;;;;;5019775;28;20037;-72
2024/03/06 09:41:41;;;;;;;10.82;7.53;;;11.00;99.90;;;;;;5022486;28;19913;-73
2024/03/06 09:44:07;;;;;;;12.45;8.00;;;11.20;99.90;;;;;;5019732;28;20724;-75
2024/03/06 09:46:34;;;;;;;11.27;8.85;;;11.30;99.90;;;;;;5000303;28;20463;-74
2024/03/06 09:49:01;;;;;;;8.80;6.97;;;11.50;99.90;;;;;;5021253;28;20113;-75
2024/03/06 09:51:27;;;;;;;10.63;7.18;;;11.40;99.90;;;;;;5021452;28;20416;-74
2024/03/06 09:53:54;;;;;;;9.07;7.28;;;11.50;99.90;;;;;;5020782;28;20021;-75
2024/03/06 09:56:20;;;;;;;9.35;6.63;;;11.60;99.90;;;;;;5017598;28;20036;-74
2024/03/06 09:58:46;;;;;;;11.15;7.47;;;11.80;99.90;;;;;;5016713;28;20466;-74
2024/03/06 10:01:16;;;;;;;9.50;7.13;;;11.80;99.90;;;;;;5016432;28;20046;-75
2024/03/06 10:03:43;;;;;;;9.00;6.95;;;11.70;99.90;;;;;;5003915;28;20025;-75
2024/03/06 10:06:09;;;;;;;8.98;5.88;;;11.90;99.90;;;;;;5016764;28;20025;-75
2024/03/06 10:08:34;;;;;;;10.10;6.55;;;12.00;99.90;;;;;;5022885;28;20490;-75
2024/03/06 10:11:00;;;;;;;7.50;6.20;;;12.10;99.90;;;;;;5017129;28;20036;-74
2024/03/06 10:13:27;;;;;;;9.68;6.20;;;12.30;99.90;;;;;;5021266;28;20036;-74
2024/03/06 10:16:11;;;;;;;8.35;5.97;;;12.50;99.90;;;;;;5018538;28;20025;-76
2024/03/06 10:18:39;;;;;;;7.40;5.35;;;12.50;99.90;;;;;;5017093;28;20026;-75
2024/03/06 10:21:05;;;;;;;8.63;6.20;;;12.60;99.90;;;;;;5017661;28;20025;-74
2024/03/06 10:23:31;;;;;;;8.00;6.63;;;12.50;99.90;;;;;;5017410;28;20024;-74
2024/03/06 10:25:57;;;;;;;7.78;6.05;;;12.20;99.90;;;;;;5020485;28;20085;-74
2024/03/06 10:28:23;;;;;;;8.13;6.40;;;12.50;99.90;;;;;;5020951;28;20030;-74
2024/03/06 10:30:50;;;;;;;9.30;5.97;;;12.80;99.90;;;;;;5020118;28;20025;-73
2024/03/06 10:33:21;;;;;;;6.53;5.53;;;12.90;99.90;;;;;;5020474;28;20041;-73
2024/03/06 10:35:51;;;;;;;9.40;5.35;;;13.00;99.90;;;;;;5019291;28;20042;-74
2024/03/06 10:38:20;;;;;;;8.60;6.20;;;12.80;99.90;;;;;;5022788;28;20029;-73
2024/03/06 10:40:45;;;;;;;8.57;4.78;;;12.70;99.90;;;;;;5017824;28;20060;-74
2024/03/06 10:43:11;;;;;;;6.90;4.93;;;12.90;99.90;;;;;;5019161;28;20061;-74
2024/03/06 10:46:06;;;;;;;5.55;4.55;;;13.00;99.90;;;;;;5001639;28;20095;-74
2024/03/06 10:48:32;;;;;;;7.60;5.68;;;13.30;99.90;;;;;;5017775;28;20116;-76
2024/03/06 10:50:59;;;;;;;9.73;5.38;;;13.50;99.90;;;;;;5014222;28;20475;-75
2024/03/06 10:53:26;;;;;;;8.30;4.88;;;13.70;99.90;;;;;;5016035;28;20037;-75
2024/03/06 10:55:53;;;;;;;5.18;4.00;;;13.70;99.90;;;;;;5022508;28;20479;-75
2024/03/06 10:58:20;;;;;;;3.63;3.33;;;13.40;99.90;;;;;;5020163;28;20032;-75
2024/03/06 11:00:47;;;;;;;4.65;3.90;;;13.30;99.90;;;;;;5000576;28;20029;-74
2024/03/06 11:03:14;;;;;;;4.30;3.67;;;13.20;99.90;;;;;;5004407;28;20021;-77
2024/03/06 11:05:45;;;;;;;7.55;4.30;;;13.40;99.90;;;;;;5023414;28;20029;-79
2024/03/06 11:08:14;;;;;;;4.43;4.03;;;13.60;99.90;;;;;;5019843;28;20593;-76
2024/03/06 11:10:43;;;;;;;4.80;3.70;;;13.20;99.90;;;;;;5019194;28;20013;-77
2024/03/06 11:13:21;;;;;;;4.80;3.85;;;13.20;99.90;;;;;;5021988;28;20080;-77
2024/03/06 11:15:47;;;;;;;6.32;4.50;;;13.40;99.90;;;;;;5021825;28;20044;-78
2024/03/06 11:18:29;;;;;;;4.28;3.88;;;13.20;99.90;;;;;;5004544;28;20033;-76
2024/03/06 11:21:03;;;;;;;7.65;4.55;;;13.00;99.90;;;;;;5020538;28;20018;-78
2024/03/06 11:23:33;;;;;;;5.13;4.45;;;12.90;99.90;;;;;;5021692;28;20044;-83
2024/03/06 11:26:06;;;;;;;6.70;5.03;;;12.70;99.90;;;;;;5024002;28;20017;-80
2024/03/06 11:28:33;;;;;;;5.70;4.90;;;12.50;99.90;;;;;;5005057;28;20025;-84
2024/03/06 11:31:47;;;;;;;;;;;;;;;;;;;;;
2024/03/06 11:34:30;;;;;;;6.68;5.65;;;12.30;99.90;;;;;;5020578;28;20044;-82
2024/03/06 11:36:59;;;;;;;6.85;5.57;;;12.30;99.90;;;;;;4986355;28;20029;-80
2024/03/06 11:39:34;;;;;;;9.15;5.55;;;12.30;99.90;;;;;;4977197;28;20301;-80
2024/03/06 11:42:00;;;;;;;7.82;5.00;;;12.30;99.90;;;;;;4958731;28;20549;-84
2024/03/06 11:44:29;;;;;;;6.70;4.97;;;12.30;99.90;;;;;;4954664;28;20018;-80
2024/03/06 11:47:03;;;;;;;6.35;4.75;;;12.30;99.90;;;;;;4993960;28;20412;-80
2024/03/06 11:49:33;;;;;;;5.43;4.90;;;12.30;99.90;;;;;;5023970;28;20013;-79
2024/03/06 11:52:00;;;;;;;8.63;5.32;;;12.20;99.90;;;;;;5021765;28;20018;-78
2024/03/06 11:54:27;;;;;;;8.55;5.40;;;12.20;99.90;;;;;;5013867;28;20059;-79
2024/03/06 11:56:56;;;;;;;6.55;5.05;;;12.30;99.90;;;;;;5021982;28;20075;-85
2024/03/06 11:59:26;;;;;;;6.28;5.00;;;12.30;99.90;;;;;;5023173;28;20021;-78
2024/03/06 12:01:52;;;;;;;7.22;4.70;;;12.40;99.90;;;;;;5022183;28;20091;-78
2024/03/06 12:04:20;;;;;;;5.32;4.80;;;12.40;99.90;;;;;;5021613;28;20029;-82
2024/03/06 12:06:46;;;;;;;9.07;5.00;;;12.50;99.90;;;;;;5017597;28;20034;-77
2024/03/06 12:09:12;;;;;;;5.38;4.47;;;12.40;99.90;;;;;;5023173;28;20017;-77
2024/03/06 12:11:38;;;;;;;8.98;4.20;;;12.30;99.90;;;;;;5018556;28;20036;-78
2024/03/06 12:14:04;;;;;;;5.38;4.05;;;12.30;99.90;;;;;;5023499;28;20026;-81
2024/03/06 12:16:30;;;;;;;6.78;4.22;;;12.40;99.90;;;;;;5018717;28;20175;-77
2024/03/06 12:18:57;;;;;;;6.32;4.55;;;12.50;99.90;;;;;;5014360;28;20032;-77
2024/03/06 12:21:30;;;;;;;4.75;4.10;;;12.60;99.90;;;;;;5019878;28;20059;-77
2024/03/06 12:24:03;;;;;;;;;;;12.60;99.90;;;;;;5016454;28;20030;-79
2024/03/06 12:26:28;;;;;;;7.97;4.20;;;12.70;99.90;;;;;;5022153;28;19913;-77
2024/03/06 12:29:10;;;;;;;5.38;4.50;;;13.00;99.90;;;;;;5019469;28;20418;-74
2024/03/06 12:31:39;;;;;;;4.35;3.95;;;13.20;99.90;;;;;;5020828;28;20038;-77
2024/03/06 12:34:06;;;;;;;5.45;3.85;;;13.40;99.90;;;;;;5005127;28;20030;-75
2024/03/06 12:36:32;;;;;;;8.80;4.15;;;13.30;99.90;;;;;;5024268;28;20080;-72
2024/03/06 12:39:03;;;;;;;5.82;4.07;;;13.20;99.90;;;;;;5019408;28;20048;-73
2024/03/06 12:41:29;;;;;;;8.23;4.20;;;13.20;99.90;;;;;;5006188;28;20478;-74
2024/03/06 12:43:56;;;;;;;4.88;3.83;;;13.20;99.90;;;;;;5022781;28;20040;-76